Time;durP1;ratioP1;P1;durP2;ratioP2;P2;SDS_P1;SDS_P2;PMS_P1;PMS_P2;Temp;Humidity;BMP_temperature;BMP_pressure;BME280_temperature;BME280_humidity;BME280_pressure;Samples;Min_cycle;Max_cycle;Signal;HPM_P1;HPM_P2
2023/05/24 00:00:11;;;;;;;7.85;2.47;;;;;;;19.48;41.75;102419.00;16113821;19;130486;-44
2023/05/24 00:05:36;;;;;;;;;;;;;;;19.44;41.81;102426.06;16113381;19;131142;-43
2023/05/24 00:10:59;;;;;;;5.18;1.67;;;;;;;19.45;41.77;102419.41;16114607;19;130690;-41
2023/05/24 00:16:21;;;;;;;4.82;1.30;;;;;;;19.43;41.77;102416.88;16108675;19;129881;-41
2023/05/24 00:21:49;;;;;;;4.78;1.63;;;;;;;19.44;41.78;102412.19;16118781;19;130366;-38
2023/05/24 00:27:11;;;;;;;9.18;1.60;;;;;;;19.43;41.93;102416.03;16114778;19;130833;-38
2023/05/24 00:32:33;;;;;;;6.85;1.38;;;;;;;19.42;41.94;102414.31;16115739;19;130103;-39
2023/05/24 00:37:55;;;;;;;5.32;1.52;;;;;;;19.41;41.58;102409.84;16113022;19;131344;-39
2023/05/24 00:43:18;;;;;;;9.90;2.03;;;;;;;19.40;41.66;102397.03;16113473;19;130073;-38
2023/05/24 00:48:41;;;;;;;4.30;1.60;;;;;;;19.39;41.70;102398.94;16117044;19;129499;-41
2023/05/24 00:54:03;;;;;;;3.92;1.55;;;;;;;19.39;42.03;102393.38;16108082;19;130875;-46
2023/05/24 00:59:26;;;;;;;3.35;1.40;;;;;;;19.38;41.71;102392.53;16116972;19;133724;-48
2023/05/24 01:04:48;;;;;;;4.65;2.00;;;;;;;19.37;42.04;102392.78;16112721;19;131052;-42
2023/05/24 01:10:19;;;;;;;5.50;1.50;;;;;;;19.38;41.78;102403.66;16110174;19;130326;-45
2023/05/24 01:15:58;;;;;;;5.07;1.60;;;;;;;19.36;41.72;102397.44;16114476;19;129187;-46
2023/05/24 01:22:28;;;;;;;8.23;2.15;;;;;;;19.33;41.85;102392.31;16106261;19;130419;-43
2023/05/24 01:27:51;;;;;;;9.68;1.80;;;;;;;19.34;42.23;102382.94;16104108;19;130033;-40
2023/05/24 01:33:13;;;;;;;3.55;1.48;;;;;;;19.32;41.77;102387.84;16100416;19;130258;-46
2023/05/24 01:38:36;;;;;;;3.80;1.35;;;;;;;19.33;42.06;102383.16;16095431;19;130734;-47
2023/05/24 01:44:14;;;;;;;3.53;1.20;;;;;;;19.33;41.76;102392.31;16097701;19;130017;-40
2023/05/24 01:49:42;;;;;;;4.53;1.42;;;;;;;19.31;41.75;102376.97;16092410;19;130874;-46
2023/05/24 01:55:07;;;;;;;5.97;1.50;;;;;;;19.30;42.19;102378.91;16096649;19;130356;-41
2023/05/24 02:00:30;;;;;;;3.65;1.20;;;;;;;19.29;42.26;102382.75;16101410;19;129728;-46
2023/05/24 02:05:52;;;;;;;4.13;1.42;;;;;;;19.29;42.06;102382.75;16115763;19;130995;-45
2023/05/24 02:11:14;;;;;;;5.05;1.20;;;;;;;19.28;42.30;102382.94;16126995;19;130453;-49
2023/05/24 02:16:41;;;;;;;3.90;1.35;;;;;;;19.27;42.22;102379.34;16122281;19;129827;-43
2023/05/24 02:22:03;;;;;;;5.00;1.50;;;;;;;19.27;41.92;102378.47;16122899;19;130687;-46
2023/05/24 02:27:25;;;;;;;2.97;1.10;;;;;;;19.25;42.00;102380.63;16122324;19;132758;-44
2023/05/24 02:32:47;;;;;;;4.78;1.63;;;;;;;19.25;41.75;102381.47;16115337;19;129912;-47
2023/05/24 02:38:09;;;;;;;3.35;1.08;;;;;;;19.23;41.73;102369.72;16116519;19;130615;-40
2023/05/24 02:43:31;;;;;;;3.17;1.23;;;;;;;19.22;42.18;102371.66;16120052;19;133087;-46
2023/05/24 02:48:53;;;;;;;2.95;1.20;;;;;;;19.21;41.95;102367.16;16121638;19;129914;-48
2023/05/24 02:54:16;;;;;;;4.57;1.13;;;;;;;19.21;41.99;102371.84;16118216;19;129321;-42
2023/05/24 02:59:38;;;;;;;5.05;1.45;;;;;;;19.19;42.10;102377.59;16117334;19;131575;-49
2023/05/24 03:05:00;;;;;;;2.42;1.05;;;;;;;19.18;41.74;102367.56;16105695;19;130853;-43
2023/05/24 03:10:22;;;;;;;4.45;1.30;;;;;;;19.18;42.12;102372.28;16117069;19;130705;-38
2023/05/24 03:15:44;;;;;;;5.40;1.42;;;;;;;19.18;41.81;102369.50;16122053;19;130369;-48
2023/05/24 03:21:07;;;;;;;3.00;1.27;;;;;;;19.16;42.08;102366.09;16119343;19;130753;-45
2023/05/24 03:26:30;;;;;;;2.22;1.10;;;;;;;19.15;42.29;102358.81;16118240;19;130542;-42
2023/05/24 03:31:52;;;;;;;2.22;0.93;;;;;;;19.15;41.75;102364.38;16116764;19;130294;-43
2023/05/24 03:37:14;;;;;;;4.50;1.35;;;;;;;19.14;42.07;102371.81;16112522;19;129425;-48
2023/05/24 03:42:36;;;;;;;2.92;1.13;;;;;;;19.13;41.87;102381.25;16113977;19;130121;-44
2023/05/24 03:47:58;;;;;;;3.53;1.40;;;;;;;19.12;41.71;102370.34;16109099;19;132058;-41
2023/05/24 03:53:20;;;;;;;2.90;1.10;;;;;;;19.11;42.04;102379.72;16113071;19;130808;-45
2023/05/24 03:58:43;;;;;;;2.17;1.02;;;;;;;19.10;41.86;102378.88;16115148;19;129874;-47
2023/05/24 04:04:05;;;;;;;3.45;1.20;;;;;;;19.09;42.11;102377.19;16113426;19;134556;-40
2023/05/24 04:09:27;;;;;;;3.05;1.00;;;;;;;19.08;42.04;102373.53;16112989;19;131819;-43
2023/05/24 04:14:50;;;;;;;3.20;1.30;;;;;;;19.06;41.72;102370.16;16116394;19;129502;-49
2023/05/24 04:20:12;;;;;;;2.75;1.23;;;;;;;19.06;41.85;102381.25;16108295;19;129818;-47
2023/05/24 04:25:34;;;;;;;3.05;1.00;;;;;;;19.06;41.71;102380.38;16114473;19;129349;-50
2023/05/24 04:30:56;;;;;;;3.75;1.27;;;;;;;19.06;42.01;102383.16;16113225;19;130558;-47
2023/05/24 04:36:18;;;;;;;4.07;1.48;;;;;;;19.05;41.82;102378.66;16111365;19;130679;-45
2023/05/24 04:41:40;;;;;;;2.50;1.00;;;;;;;19.04;41.73;102388.91;16108135;19;131147;-38
2023/05/24 04:47:02;;;;;;;3.85;1.20;;;;;;;19.03;41.84;102390.00;16110182;19;130047;-43
2023/05/24 04:52:24;;;;;;;3.38;1.27;;;;;;;19.02;41.95;102393.81;16110872;19;129947;-49
2023/05/24 04:57:47;;;;;;;4.28;1.42;;;;;;;19.03;41.93;102391.88;16109552;19;131299;-42
2023/05/24 05:03:09;;;;;;;4.03;1.30;;;;;;;19.03;41.87;102389.13;16108210;19;129999;-46
2023/05/24 05:08:32;;;;;;;2.80;1.13;;;;;;;19.03;41.84;102389.13;16101893;19;130898;-41
2023/05/24 05:13:54;;;;;;;3.97;1.30;;;;;;;19.03;41.95;102383.56;16107038;19;129904;-38
2023/05/24 05:19:16;;;;;;;3.47;1.30;;;;;;;19.03;41.49;102380.78;16108271;19;133078;-40
2023/05/24 05:24:37;;;;;;;4.43;1.38;;;;;;;19.11;41.76;102379.72;16107596;19;129981;-38
2023/05/24 05:29:59;;;;;;;4.95;1.27;;;;;;;19.22;41.45;102395.75;16107808;19;131399;-38
2023/05/24 05:35:21;;;;;;;6.40;1.38;;;;;;;19.34;41.51;102388.50;16105482;19;130788;-43
2023/05/24 05:40:43;;;;;;;5.95;1.55;;;;;;;19.47;41.82;102386.75;16120537;19;130017;-48
2023/05/24 05:46:05;;;;;;;5.25;1.30;;;;;;;19.59;41.61;102382.25;16123904;19;133177;-40
2023/05/24 05:51:27;;;;;;;8.52;1.33;;;;;;;19.71;41.51;102382.44;16126722;19;129823;-44
2023/05/24 05:56:49;;;;;;;6.38;1.63;;;;;;;19.79;41.73;102371.09;16121190;19;130512;-44
2023/05/24 06:02:11;;;;;;;6.28;1.42;;;;;;;19.86;41.90;102373.84;16118994;19;131967;-41
2023/05/24 06:07:36;;;;;;;6.70;1.40;;;;;;;19.95;41.84;102386.41;16124300;19;129502;-41
2023/05/24 06:12:58;;;;;;;7.05;1.60;;;;;;;20.01;41.64;102393.03;16122922;19;130556;-40
2023/05/24 06:18:19;;;;;;;11.10;1.55;;;;;;;20.06;41.42;102403.50;16123274;19;129362;-46
2023/05/24 06:23:42;;;;;;;11.32;2.08;;;;;;;20.09;41.25;102414.16;16121947;19;130816;-44
2023/05/24 06:29:03;;;;;;;22.33;2.40;;;;;;;20.14;41.27;102406.88;16118966;19;130500;-47
2023/05/24 06:34:26;;;;;;;14.07;2.15;;;;;;;20.20;40.93;102409.84;16121516;19;130980;-41
2023/05/24 06:39:48;;;;;;;10.77;2.08;;;;;;;20.25;41.16;102402.56;16119629;19;129932;-45
2023/05/24 06:45:10;;;;;;;13.32;2.08;;;;;;;20.29;40.83;102402.97;16121616;19;129686;-43
2023/05/24 06:50:32;;;;;;;8.48;2.00;;;;;;;20.32;40.90;102412.78;16119695;19;130141;-50
2023/05/24 06:55:54;;;;;;;7.53;2.15;;;;;;;20.32;40.58;102415.53;16119109;19;130682;-48
2023/05/24 07:01:18;;;;;;;16.40;3.50;;;;;;;20.28;40.24;102417.91;16118164;19;131611;-46
2023/05/24 07:06:40;;;;;;;17.25;2.70;;;;;;;20.22;40.47;102419.66;16119304;19;129747;-43
2023/05/24 07:12:02;;;;;;;13.85;2.50;;;;;;;20.13;40.22;102432.09;16116478;19;130222;-41
2023/05/24 07:17:24;;;;;;;18.48;2.83;;;;;;;20.06;40.68;102442.41;16119544;19;130409;-48
2023/05/24 07:22:46;;;;;;;17.27;2.92;;;;;;;19.97;40.20;102439.81;16117794;19;130495;-42
2023/05/24 07:28:08;;;;;;;11.73;2.42;;;;;;;19.93;40.35;102438.56;16115625;19;129836;-40
2023/05/24 07:33:30;;;;;;;13.85;2.95;;;;;;;19.94;40.47;102428.28;16113141;19;131038;-37
2023/05/24 07:38:52;;;;;;;16.23;3.13;;;;;;;19.97;39.98;102425.09;16113287;19;130813;-38
2023/05/24 07:44:14;;;;;;;10.98;2.47;;;;;;;20.04;40.21;102420.38;16111352;19;130411;-38
2023/05/24 07:49:36;;;;;;;13.63;2.45;;;;;;;20.11;39.76;102431.47;16114418;19;129971;-38
2023/05/24 07:54:58;;;;;;;22.15;3.17;;;;;;;20.17;39.66;102427.81;16116880;19;130594;-39
2023/05/24 08:00:20;;;;;;;13.35;2.72;;;;;;;20.26;39.68;102415.38;16113462;19;130235;-38
2023/05/24 08:05:42;;;;;;;16.23;2.85;;;;;;;20.33;39.75;102417.25;16114738;19;130722;-38
2023/05/24 08:11:06;;;;;;;16.63;3.60;;;;;;;20.40;39.76;102404.19;16110282;19;131259;-38
2023/05/24 08:16:28;;;;;;;17.38;3.17;;;;;;;20.44;39.51;102403.53;16120280;19;129412;-38
2023/05/24 08:21:50;;;;;;;10.98;2.65;;;;;;;20.43;38.79;102401.81;16111557;19;130455;-39
2023/05/24 08:27:13;;;;;;;19.50;3.67;;;;;;;20.46;38.44;102414.41;16105321;19;131572;-38
2023/05/24 08:32:35;;;;;;;15.85;3.30;;;;;;;20.43;38.34;102398.19;16109672;19;131424;-40
2023/05/24 08:37:57;;;;;;;20.13;4.03;;;;;;;20.39;38.21;102405.25;16106410;19;129880;-39
2023/05/24 08:43:20;;;;;;;16.45;4.00;;;;;;;20.33;38.10;102411.69;16110715;19;129486;-39
2023/05/24 08:48:46;;;;;;;16.40;4.03;;;;;;;20.26;37.86;102398.69;16110775;19;131394;-38
2023/05/24 08:54:10;;;;;;;14.85;3.65;;;;;;;20.21;37.75;102406.00;16112264;19;130619;-37
2023/05/24 08:59:35;;;;;;;14.55;3.22;;;;;;;20.18;37.98;102392.53;16111580;19;130065;-37
2023/05/24 09:04:59;;;;;;;14.55;3.47;;;;;;;20.17;37.70;102391.69;16115525;19;129195;-39
2023/05/24 09:10:21;;;;;;;10.82;3.17;;;;;;;20.15;37.77;102407.75;16115456;19;129296;-38
2023/05/24 09:15:43;;;;;;;19.02;4.53;;;;;;;20.14;37.95;102400.47;16112685;19;129603;-39
2023/05/24 09:21:06;;;;;;;12.45;2.92;;;;;;;20.13;38.46;102393.22;16113981;19;132615;-38
2023/05/24 09:26:29;;;;;;;12.35;3.03;;;;;;;20.12;38.04;102397.91;16112229;19;129568;-41
2023/05/24 09:31:54;;;;;;;8.23;2.83;;;;;;;20.12;38.04;102397.06;16109961;19;131332;-38
2023/05/24 09:37:20;;;;;;;11.95;3.10;;;;;;;20.14;38.53;102381.03;16107753;19;130123;-38
2023/05/24 09:42:51;;;;;;;8.95;3.08;;;;;;;20.15;38.56;102385.50;16112026;19;129358;-39
2023/05/24 09:48:14;;;;;;;;;;;;;;;20.14;38.35;102378.25;16104463;19;129704;-37
2023/05/24 09:53:36;;;;;;;10.43;2.67;;;;;;;20.17;38.10;102379.72;16110098;19;129609;-40
2023/05/24 09:59:04;;;;;;;10.13;3.15;;;;;;;20.21;38.21;102370.72;16108663;19;130382;-38
2023/05/24 10:04:33;;;;;;;6.80;2.78;;;;;;;20.23;38.19;102370.50;16094651;19;130708;-37
2023/05/24 10:09:55;;;;;;;5.38;2.50;;;;;;;20.21;38.42;102367.94;16095693;19;130971;-37
2023/05/24 10:15:17;;;;;;;12.45;3.30;;;;;;;20.21;38.67;102367.94;16097674;19;131205;-37
2023/05/24 10:20:39;;;;;;;13.13;3.22;;;;;;;20.22;38.41;102357.69;16103572;19;130607;-37
2023/05/24 10:26:08;;;;;;;11.20;3.20;;;;;;;20.27;38.55;102363.41;16116709;19;129508;-37
2023/05/24 10:31:33;;;;;;;18.35;3.97;;;;;;;20.26;38.28;102359.78;16122161;19;133252;-38
2023/05/24 10:36:57;;;;;;;14.10;5.83;;;;;;;20.23;38.58;102360.22;16122699;19;129734;-37
2023/05/24 10:42:20;;;;;;;14.00;5.20;;;;;;;20.23;38.73;102354.69;16125221;19;130161;-39
2023/05/24 10:47:42;;;;;;;14.15;5.03;;;;;;;20.24;39.06;102358.31;16115700;19;131737;-39
2023/05/24 10:53:15;;;;;;;14.93;4.28;;;;;;;20.23;39.29;102351.91;16115942;19;130814;-39
2023/05/24 10:58:36;;;;;;;25.08;4.80;;;;;;;20.22;39.28;102355.75;16117730;19;130311;-45
2023/05/24 11:04:14;;;;;;;13.23;4.45;;;;;;;20.27;39.39;102350.38;16116595;19;130376;-47
2023/05/24 11:09:44;;;;;;;16.52;4.78;;;;;;;20.27;39.81;102347.59;16117548;19;130769;-48
2023/05/24 11:15:08;;;;;;;22.10;4.28;;;;;;;20.27;39.59;102344.81;16121342;19;131010;-47
2023/05/24 11:20:30;;;;;;;20.45;4.20;;;;;;;20.23;39.75;102348.28;16121975;19;135228;-43
2023/05/24 11:25:52;;;;;;;15.75;3.75;;;;;;;20.21;40.43;102351.25;16122351;19;131068;-46
2023/05/24 11:31:15;;;;;;;14.07;4.05;;;;;;;20.20;40.75;102340.38;16120631;19;130283;-44
2023/05/24 11:36:38;;;;;;;16.35;4.05;;;;;;;20.19;41.25;102347.00;16114668;19;129827;-45
2023/05/24 11:42:03;;;;;;;12.98;3.90;;;;;;;20.18;41.40;102340.63;16113642;19;131177;-43
2023/05/24 11:47:25;;;;;;;10.90;3.40;;;;;;;20.18;41.13;102326.72;16101857;19;135107;-48
2023/05/24 11:52:47;;;;;;;17.63;4.18;;;;;;;20.19;41.21;102333.94;16113961;19;129686;-44
2023/05/24 11:58:18;;;;;;;20.45;3.72;;;;;;;20.17;40.86;102321.38;16117111;19;129751;-47
2023/05/24 12:03:40;;;;;;;13.77;3.67;;;;;;;20.18;41.62;102309.19;16120441;19;129762;-45
2023/05/24 12:09:06;;;;;;;18.52;4.13;;;;;;;20.14;41.59;102317.13;16116504;19;129897;-50
2023/05/24 12:14:29;;;;;;;13.48;3.72;;;;;;;20.07;41.43;102317.16;16120382;19;129553;-44
2023/05/24 12:19:52;;;;;;;15.73;4.10;;;;;;;20.03;41.76;102326.16;16116160;19;129607;-47
2023/05/24 12:25:19;;;;;;;9.98;3.30;;;;;;;19.97;41.75;102328.69;16114141;19;131388;-44
2023/05/24 12:30:44;;;;;;;13.15;3.30;;;;;;;19.94;42.14;102312.47;16115304;19;131707;-47
2023/05/24 12:36:06;;;;;;;17.00;4.50;;;;;;;19.92;41.79;102317.41;16115723;19;130354;-45
2023/05/24 12:41:29;;;;;;;10.02;3.33;;;;;;;19.92;42.03;102320.19;16111687;19;129948;-50
2023/05/24 12:46:55;;;;;;;11.70;3.17;;;;;;;19.90;42.18;102311.22;16111503;19;129614;-42
2023/05/24 12:52:17;;;;;;;11.43;2.85;;;;;;;19.88;41.70;102316.16;16111807;19;130281;-45
2023/05/24 12:57:51;;;;;;;7.90;2.70;;;;;;;19.86;41.87;102315.50;16116068;19;130488;-45
2023/05/24 13:03:13;;;;;;;13.65;2.90;;;;;;;19.85;42.05;102316.59;16112289;19;130436;-45
2023/05/24 13:08:35;;;;;;;15.52;4.07;;;;;;;19.86;41.74;102309.13;16112634;19;130534;-46
2023/05/24 13:14:04;;;;;;;;;;;;;;;19.84;41.79;102309.31;16112161;19;130538;-44
2023/05/24 13:19:26;;;;;;;13.00;2.92;;;;;;;19.87;41.82;102300.56;16112169;19;131082;-49
2023/05/24 13:24:48;;;;;;;9.00;2.97;;;;;;;19.87;42.06;102300.56;16112406;19;130291;-45
2023/05/24 13:30:11;;;;;;;10.10;2.80;;;;;;;19.86;42.39;102304.41;16114318;19;129602;-47
2023/05/24 13:35:33;;;;;;;8.02;2.95;;;;;;;19.87;42.46;102300.56;16110905;19;130756;-46
2023/05/24 13:40:55;;;;;;;13.13;3.20;;;;;;;19.87;42.42;102296.94;16109596;19;130312;-46
2023/05/24 13:46:17;;;;;;;11.98;3.38;;;;;;;19.88;42.16;102288.38;16111011;19;129459;-46
2023/05/24 13:51:39;;;;;;;8.82;2.78;;;;;;;19.89;42.49;102289.22;16110775;19;130865;-47
2023/05/24 13:57:01;;;;;;;12.82;3.55;;;;;;;19.90;42.32;102286.22;16109535;19;129736;-44
2023/05/24 14:02:23;;;;;;;8.13;2.70;;;;;;;19.91;42.16;102293.50;16126006;19;131268;-48
2023/05/24 14:07:45;;;;;;;10.57;2.78;;;;;;;19.91;42.44;102300.97;16128977;19;134360;-43
2023/05/24 14:13:07;;;;;;;9.05;3.03;;;;;;;19.90;42.34;102297.34;16125673;19;130989;-46
2023/05/24 14:18:33;;;;;;;11.98;3.13;;;;;;;19.90;42.46;102300.13;16125211;19;129874;-44
2023/05/24 14:23:55;;;;;;;8.73;3.10;;;;;;;19.90;42.21;102305.69;16125220;19;129924;-41
2023/05/24 14:29:17;;;;;;;9.35;2.78;;;;;;;19.90;42.37;102288.16;16125880;19;129545;-45
2023/05/24 14:34:38;;;;;;;6.78;2.63;;;;;;;19.89;42.63;102301.19;16125007;19;130464;-48
2023/05/24 14:40:00;;;;;;;11.15;3.42;;;;;;;19.87;41.93;102297.78;16126145;19;131382;-45
2023/05/24 14:45:23;;;;;;;7.88;3.10;;;;;;;19.85;42.29;102294.38;16125443;19;129690;-42
2023/05/24 14:50:45;;;;;;;10.60;2.65;;;;;;;19.83;42.33;102304.84;16130319;19;129448;-42
2023/05/24 14:56:08;;;;;;;11.15;3.28;;;;;;;19.81;42.44;102296.75;16132060;19;129597;-45
2023/05/24 15:01:30;;;;;;;9.25;2.95;;;;;;;19.80;42.18;102294.19;16121843;19;133156;-42
2023/05/24 15:06:52;;;;;;;7.38;2.50;;;;;;;19.78;41.82;102297.19;16120783;19;129478;-47
2023/05/24 15:12:14;;;;;;;11.80;3.10;;;;;;;19.79;41.40;102295.28;16131993;19;129455;-47
2023/05/24 15:17:36;;;;;;;10.07;3.00;;;;;;;19.78;41.11;102294.41;16144168;19;129525;-41
2023/05/24 15:22:58;;;;;;;12.32;3.67;;;;;;;19.78;41.48;102297.19;16144821;19;129133;-42
2023/05/24 15:28:21;;;;;;;9.40;2.58;;;;;;;19.78;41.58;102291.63;16135055;19;129788;-44
2023/05/24 15:33:46;;;;;;;;;;;;;;;19.77;41.10;102289.06;16147212;19;131056;-49
2023/05/24 15:39:08;;;;;;;10.23;3.20;;;;;;;19.79;41.59;102286.94;16117138;19;130800;-39
2023/05/24 15:44:31;;;;;;;12.38;3.50;;;;;;;19.79;41.40;102289.72;16117331;19;130340;-40
2023/05/24 15:49:53;;;;;;;9.95;3.20;;;;;;;19.78;41.44;102276.91;16114832;19;129918;-39
2023/05/24 15:55:15;;;;;;;9.32;2.80;;;;;;;19.76;41.36;102287.38;16117837;19;130540;-40
2023/05/24 16:00:37;;;;;;;9.60;3.40;;;;;;;19.77;41.08;102277.97;16114327;19;129352;-39
2023/05/24 16:05:59;;;;;;;14.52;3.30;;;;;;;19.77;40.99;102280.75;16115951;19;129387;-41
2023/05/24 16:11:22;;;;;;;10.52;2.97;;;;;;;19.77;40.90;102278.81;16119681;19;130575;-39
2023/05/24 16:16:45;;;;;;;8.10;2.90;;;;;;;19.76;40.88;102277.09;16117155;19;130433;-40
2023/05/24 16:22:07;;;;;;;9.95;2.95;;;;;;;19.75;40.87;102264.31;16109734;19;130473;-39
2023/05/24 16:27:29;;;;;;;10.15;3.08;;;;;;;19.76;41.06;102270.72;16109753;19;132581;-40
2023/05/24 16:32:51;;;;;;;9.73;3.35;;;;;;;19.81;40.93;102257.88;16111631;19;129681;-39
2023/05/24 16:38:13;;;;;;;10.68;3.25;;;;;;;19.83;40.43;102257.63;16110175;19;129911;-39
2023/05/24 16:43:35;;;;;;;11.63;3.28;;;;;;;19.81;40.21;102259.81;16108388;19;132734;-38
2023/05/24 16:48:58;;;;;;;16.27;3.40;;;;;;;19.81;40.01;102246.75;16114683;19;130630;-44
2023/05/24 16:54:20;;;;;;;19.35;3.78;;;;;;;19.81;39.43;102245.91;16110384;19;130247;-42
2023/05/24 16:59:43;;;;;;;15.23;3.33;;;;;;;19.80;39.78;102245.06;16109743;19;131016;-39
2023/05/24 17:05:06;;;;;;;11.55;3.00;;;;;;;19.83;39.51;102238.19;16112982;19;131010;-40
2023/05/24 17:10:27;;;;;;;19.35;3.88;;;;;;;19.84;39.12;102235.22;16108839;19;129780;-39
2023/05/24 17:15:50;;;;;;;13.77;3.67;;;;;;;19.86;39.18;102231.38;16111221;19;130720;-40
2023/05/24 17:21:12;;;;;;;17.30;3.72;;;;;;;19.89;39.81;102242.88;16107585;19;130603;-40
2023/05/24 17:26:34;;;;;;;12.20;3.03;;;;;;;19.89;39.42;102240.09;16113388;19;129531;-38
2023/05/24 17:31:56;;;;;;;15.98;3.70;;;;;;;19.94;39.71;102243.03;16112416;19;131924;-39
2023/05/24 17:37:18;;;;;;;30.27;3.58;;;;;;;19.96;39.58;102232.56;16105841;19;130832;-41
2023/05/24 17:42:41;;;;;;;20.42;3.17;;;;;;;19.98;39.63;102244.31;16106362;19;131219;-43
2023/05/24 17:48:04;;;;;;;12.25;3.20;;;;;;;20.01;39.77;102244.97;16103536;19;129856;-40
2023/05/24 17:53:33;;;;;;;16.10;3.72;;;;;;;20.03;39.25;102248.38;16110676;19;130374;-41
2023/05/24 17:58:55;;;;;;;9.05;3.05;;;;;;;20.02;39.83;102252.22;16111852;19;130431;-42
2023/05/24 18:04:17;;;;;;;17.75;3.00;;;;;;;20.06;39.56;102259.06;16107402;19;130268;-43
2023/05/24 18:09:39;;;;;;;8.57;2.60;;;;;;;20.06;39.49;102254.34;16105885;19;131667;-42
2023/05/24 18:15:01;;;;;;;13.77;3.35;;;;;;;20.05;39.09;102260.97;16108505;19;129660;-42
2023/05/24 18:20:23;;;;;;;14.23;2.65;;;;;;;20.04;38.83;102255.63;16108742;19;130896;-41
2023/05/24 18:25:45;;;;;;;11.98;3.00;;;;;;;20.01;39.20;102262.47;16103378;19;134139;-41
2023/05/24 18:31:13;;;;;;;9.75;3.05;;;;;;;19.97;39.11;102262.03;16108197;19;129565;-41
2023/05/24 18:36:35;;;;;;;11.45;2.80;;;;;;;19.98;39.61;102263.75;16111636;19;129823;-41
2023/05/24 18:41:57;;;;;;;12.48;2.65;;;;;;;19.99;39.30;102270.16;16106893;19;130875;-43
2023/05/24 18:47:19;;;;;;;10.32;2.65;;;;;;;19.99;39.80;102271.03;16115069;19;129572;-43
2023/05/24 18:52:41;;;;;;;11.77;3.28;;;;;;;20.00;39.32;102274.66;16121642;19;131190;-42
2023/05/24 18:58:05;;;;;;;10.32;2.60;;;;;;;19.98;39.31;102285.13;16118505;19;130664;-46
2023/05/24 19:03:27;;;;;;;10.48;2.95;;;;;;;19.98;39.17;102285.97;16119456;19;130272;-42
2023/05/24 19:08:49;;;;;;;12.32;2.53;;;;;;;19.97;39.37;102295.38;16122041;19;129333;-39
2023/05/24 19:14:16;;;;;;;8.73;2.42;;;;;;;19.98;39.70;102297.06;16117222;19;131293;-41
2023/05/24 19:19:38;;;;;;;9.20;2.60;;;;;;;19.99;39.55;102303.50;16117965;19;131113;-42
2023/05/24 19:25:00;;;;;;;14.05;2.75;;;;;;;19.96;39.49;102302.00;16113992;19;129494;-40
2023/05/24 19:30:22;;;;;;;10.40;2.75;;;;;;;19.94;39.15;102309.69;16116980;19;129464;-40
2023/05/24 19:35:44;;;;;;;11.05;2.78;;;;;;;19.91;39.24;102312.06;16116412;19;129568;-42
2023/05/24 19:41:08;;;;;;;10.55;2.35;;;;;;;19.92;39.35;102314.66;16113805;19;130100;-45
2023/05/24 19:46:31;;;;;;;6.00;2.13;;;;;;;19.90;39.44;102322.34;16115362;19;130856;-44
2023/05/24 19:51:53;;;;;;;9.30;2.55;;;;;;;19.88;39.23;102318.94;16114695;19;130890;-44
2023/05/24 19:57:15;;;;;;;9.05;2.00;;;;;;;19.87;39.48;102328.34;16115910;19;130245;-45
2023/05/24 20:02:38;;;;;;;9.25;2.35;;;;;;;19.86;39.18;102336.91;16114672;19;129685;-45
2023/05/24 20:08:00;;;;;;;6.68;2.50;;;;;;;19.86;39.27;102339.66;16113475;19;130506;-42
2023/05/24 20:13:23;;;;;;;9.63;2.63;;;;;;;19.87;39.48;102342.22;16111442;19;129703;-44
2023/05/24 20:18:45;;;;;;;6.13;2.13;;;;;;;19.88;39.33;102357.81;16115454;19;130135;-44
2023/05/24 20:24:07;;;;;;;6.45;2.10;;;;;;;19.90;39.58;102357.59;16112414;19;129777;-42
2023/05/24 20:29:28;;;;;;;5.28;2.20;;;;;;;19.90;39.61;102355.66;16120702;19;130681;-43
2023/05/24 20:34:50;;;;;;;6.43;2.08;;;;;;;19.91;39.22;102357.38;16111607;19;134231;-42
2023/05/24 20:40:21;;;;;;;10.52;2.42;;;;;;;19.92;39.49;102359.09;16106899;19;131468;-42
2023/05/24 20:45:43;;;;;;;9.02;2.90;;;;;;;19.89;39.35;102362.28;16108555;19;131200;-45
2023/05/24 20:51:07;;;;;;;6.47;2.15;;;;;;;19.89;39.61;102370.63;16110117;19;131886;-40
2023/05/24 20:56:28;;;;;;;8.30;2.55;;;;;;;19.90;39.57;102371.47;16109937;19;131209;-41
2023/05/24 21:01:50;;;;;;;6.80;2.50;;;;;;;19.89;39.74;102370.63;16109327;19;134844;-42
2023/05/24 21:07:13;;;;;;;9.85;2.35;;;;;;;19.86;39.34;102379.38;16106035;19;130990;-41
2023/05/24 21:12:34;;;;;;;7.95;1.83;;;;;;;19.83;39.61;102389.03;16103639;19;131185;-42
2023/05/24 21:17:56;;;;;;;4.88;2.00;;;;;;;19.79;39.28;102392.47;16111183;19;129841;-43
2023/05/24 21:23:18;;;;;;;6.15;2.35;;;;;;;19.76;39.64;102402.06;16108392;19;131156;-39
2023/05/24 21:28:40;;;;;;;4.05;1.83;;;;;;;19.73;39.42;102404.44;16111868;19;131259;-40
2023/05/24 21:34:02;;;;;;;5.03;2.08;;;;;;;19.68;39.29;102414.28;16105295;19;130562;-43
2023/05/24 21:39:24;;;;;;;6.72;2.10;;;;;;;19.66;39.84;102413.63;16109184;19;129649;-42
2023/05/24 21:44:46;;;;;;;5.97;2.10;;;;;;;19.65;39.76;102417.47;16110187;19;129804;-44
2023/05/24 21:50:08;;;;;;;6.55;2.33;;;;;;;19.63;39.51;102427.94;16106439;19;129983;-42
2023/05/24 21:55:30;;;;;;;7.13;2.05;;;;;;;19.60;39.44;102425.59;16112257;19;129449;-41
2023/05/24 22:00:52;;;;;;;5.80;2.28;;;;;;;19.57;39.83;102430.75;16109970;19;129868;-44
2023/05/24 22:06:14;;;;;;;6.70;1.90;;;;;;;19.55;39.85;102433.75;16108356;19;131177;-41
2023/05/24 22:11:36;;;;;;;6.40;2.05;;;;;;;19.54;39.54;102440.34;16110007;19;130349;-42
2023/05/24 22:16:58;;;;;;;6.90;2.10;;;;;;;19.52;39.62;102439.72;16111347;19;129525;-40
2023/05/24 22:22:21;;;;;;;5.07;2.03;;;;;;;19.51;39.60;102440.78;16115042;19;129505;-41
2023/05/24 22:27:43;;;;;;;9.32;2.70;;;;;;;19.49;39.63;102443.78;16121407;19;130233;-43
2023/05/24 22:33:05;;;;;;;5.13;2.30;;;;;;;19.47;39.66;102450.59;16114724;19;131382;-40
2023/05/24 22:38:28;;;;;;;5.63;1.88;;;;;;;19.45;39.59;102453.59;16117995;19;130942;-45
2023/05/24 22:43:49;;;;;;;7.63;2.33;;;;;;;19.44;39.83;102439.94;16119347;19;130486;-41
2023/05/24 22:49:13;;;;;;;6.93;2.33;;;;;;;19.43;39.89;102444.63;16120138;19;129306;-41
2023/05/24 22:54:35;;;;;;;3.92;1.83;;;;;;;19.42;39.40;102447.63;16120274;19;131540;-45
2023/05/24 22:59:57;;;;;;;4.85;2.03;;;;;;;19.40;39.65;102447.00;16117756;19;130484;-42
2023/05/24 23:05:20;;;;;;;6.55;2.50;;;;;;;19.38;39.70;102453.59;16117131;19;131988;-40
2023/05/24 23:10:44;;;;;;;9.93;2.28;;;;;;;19.36;39.60;102450.19;16111569;19;130416;-42
2023/05/24 23:16:06;;;;;;;6.75;2.22;;;;;;;19.36;39.38;102447.41;16115232;19;130569;-41
2023/05/24 23:21:28;;;;;;;4.53;1.92;;;;;;;19.34;39.88;102444.00;16118548;19;130872;-41
2023/05/24 23:26:50;;;;;;;4.40;1.95;;;;;;;19.33;39.88;102450.59;16122399;19;129174;-44
2023/05/24 23:32:12;;;;;;;4.68;1.65;;;;;;;19.33;39.38;102455.31;16114435;19;130732;-40
2023/05/24 23:37:34;;;;;;;4.00;1.75;;;;;;;19.31;39.48;102450.00;16115306;19;129741;-42
2023/05/24 23:42:55;;;;;;;5.95;2.10;;;;;;;19.29;39.90;102442.91;16115936;19;130507;-43
2023/05/24 23:48:20;;;;;;;5.03;1.88;;;;;;;19.29;39.50;102456.78;16120542;19;129690;-40
2023/05/24 23:53:42;;;;;;;5.75;2.13;;;;;;;19.28;39.53;102458.72;16117908;19;129837;-40
2023/05/24 23:59:04;;;;;;;5.90;2.03;;;;;;;19.28;39.54;102449.53;16123156;19;130011;-49
